createdAt,value
2023-01-12T00:01:57.978Z,98743.31
2023-01-12T00:04:25.014Z,98738.53
2023-01-12T00:06:51.896Z,98731.09
2023-01-12T00:09:18.722Z,98737.34
2023-01-12T00:11:45.507Z,98735.28
2023-01-12T00:14:12.468Z,98741.09
2023-01-12T00:16:39.714Z,98734.84
2023-01-12T00:19:18.448Z,98732.19
2023-01-12T00:21:59.592Z,98726.38
2023-01-12T00:24:29.187Z,98727.84
2023-01-12T00:26:58.419Z,98719.56
2023-01-12T00:29:26.742Z,98721.22
2023-01-12T00:31:54.836Z,98722.88
2023-01-12T00:34:22.616Z,98711.28
2023-01-12T00:36:49.644Z,98711.28
2023-01-12T00:39:17.452Z,98707.13
2023-01-12T00:42:03.234Z,98713.16
2023-01-12T00:44:50.135Z,98709.63
2023-01-12T00:47:18.259Z,98712.34
2023-01-12T00:49:45.396Z,98718.34
2023-01-12T00:52:29.377Z,98716.28
2023-01-12T00:54:57.135Z,98714.81
2023-01-12T00:57:23.923Z,98722.13
2023-01-12T00:59:51.766Z,98725.06
2023-01-12T01:02:18.672Z,98726.72
2023-01-12T01:04:45.505Z,98726.50
2023-01-12T01:07:16.162Z,98713.03
2023-01-12T01:09:44.391Z,98718.00
2023-01-12T01:12:11.338Z,98715.09
2023-01-12T01:14:38.252Z,98724.25
2023-01-12T01:17:05.460Z,98724.22
2023-01-12T01:19:32.441Z,98723.19
2023-01-12T01:21:59.647Z,98723.78
2023-01-12T01:24:26.588Z,98732.56
2023-01-12T01:26:53.377Z,98737.13
2023-01-12T01:29:20.234Z,98725.88
2023-01-12T01:31:50.091Z,98731.06
2023-01-12T01:34:16.911Z,98730.84
2023-01-12T01:36:43.683Z,98740.41
2023-01-12T01:39:10.703Z,98733.53
2023-01-12T01:41:38.437Z,98739.16
2023-01-12T01:44:29.802Z,98732.28
2023-01-12T01:47:05.056Z,98730.59
2023-01-12T01:49:51.927Z,98729.13
2023-01-12T01:52:29.519Z,98730.97
2023-01-12T01:55:01.788Z,98749.84
2023-01-12T01:57:42.303Z,98734.03
2023-01-12T02:00:12.496Z,98736.06
2023-01-12T02:02:41.702Z,98739.78
2023-01-12T02:05:10.617Z,98736.88
2023-01-12T02:07:38.743Z,98728.97
2023-01-12T02:10:06.431Z,98727.69
2023-01-12T02:12:52.227Z,98732.47
2023-01-12T02:15:38.247Z,98717.47
2023-01-12T02:18:22.433Z,98739.28
2023-01-12T02:21:52.186Z,98738.84
2023-01-12T02:24:58.662Z,98749.41
2023-01-12T02:27:50.886Z,98754.81
2023-01-12T02:30:24.194Z,98760.88
2023-01-12T02:33:09.076Z,98760.63
2023-01-12T02:36:19.387Z,98767.53
2023-01-12T02:39:12.132Z,98777.28
2023-01-12T02:42:40.700Z,98783.97
2023-01-12T02:45:34.102Z,98785.88
2023-01-12T02:48:22.191Z,98788.56
2023-01-12T02:51:14.621Z,98795.84
2023-01-12T02:53:53.247Z,98792.91
2023-01-12T02:56:31.863Z,98800.00
2023-01-12T02:59:04.029Z,98797.50
2023-01-12T03:01:35.378Z,98813.09
2023-01-12T03:04:06.906Z,98802.88
2023-01-12T03:06:46.462Z,98804.97
2023-01-12T03:09:18.389Z,98804.97
2023-01-12T03:11:49.281Z,98802.28
2023-01-12T03:14:18.184Z,98806.66
2023-01-12T03:16:45.004Z,98808.31
2023-01-12T03:19:18.782Z,98808.09
2023-01-12T03:21:58.006Z,98817.06
2023-01-12T03:24:50.508Z,98815.38
2023-01-12T03:27:23.246Z,98808.53
2023-01-12T03:30:00.981Z,98825.22
2023-01-12T03:32:28.306Z,98818.53
2023-01-12T03:34:55.199Z,98825.22
2023-01-12T03:37:34.947Z,98825.63
2023-01-12T03:40:24.068Z,98833.31
2023-01-12T03:43:05.745Z,98831.88
2023-01-12T03:45:55.355Z,98837.91
2023-01-12T03:48:34.311Z,98834.59
2023-01-12T03:51:35.291Z,98841.25
2023-01-12T03:54:04.830Z,98845.22
2023-01-12T03:56:35.778Z,98857.50
2023-01-12T03:59:04.841Z,98857.50
2023-01-12T04:01:32.995Z,98860.41
2023-01-12T04:03:59.872Z,98866.47
2023-01-12T04:06:26.929Z,98869.41
2023-01-12T04:08:53.729Z,98876.66
2023-01-12T04:11:39.004Z,98886.66
2023-01-12T04:14:05.780Z,98885.84
2023-01-12T04:16:32.988Z,98883.34
2023-01-12T04:18:59.810Z,98883.56
2023-01-12T04:21:46.846Z,98887.94
2023-01-12T04:24:13.613Z,98902.09
2023-01-12T04:26:40.553Z,98906.69
2023-01-12T04:29:07.387Z,98912.50
2023-01-12T04:31:34.251Z,98916.25
2023-01-12T04:34:01.155Z,98913.53
2023-01-12T04:36:28.047Z,98910.63
2023-01-12T04:38:54.855Z,98914.16
2023-01-12T04:41:22.025Z,98903.31
2023-01-12T04:43:48.818Z,98908.94
2023-01-12T04:46:15.682Z,98914.34
2023-01-12T04:48:44.421Z,98908.13
2023-01-12T04:51:11.539Z,98914.56
2023-01-12T04:53:38.539Z,98916.44
2023-01-12T04:56:07.099Z,98909.59
2023-01-12T04:58:35.194Z,98922.06
2023-01-12T05:01:10.179Z,98927.94
2023-01-12T05:03:37.028Z,98921.69
2023-01-12T05:06:05.376Z,98927.31
2023-01-12T05:08:51.231Z,98929.59
2023-01-12T05:11:18.293Z,98928.38
2023-01-12T05:13:45.083Z,98927.50
2023-01-12T05:16:16.057Z,98933.38
2023-01-12T05:18:45.177Z,98930.06
2023-01-12T05:21:13.734Z,98940.63
2023-01-12T05:23:40.571Z,98931.50
2023-01-12T05:26:08.029Z,98936.69
2023-01-12T05:28:34.934Z,98945.03
2023-01-12T05:31:06.700Z,98934.84
2023-01-12T05:33:34.048Z,98935.25
2023-01-12T05:36:07.871Z,98937.75
2023-01-12T05:38:34.708Z,98932.53
2023-01-12T05:41:04.724Z,98940.88
2023-01-12T05:43:50.569Z,98935.88
2023-01-12T05:46:43.984Z,98933.41
2023-01-12T05:49:11.198Z,98937.53
2023-01-12T05:51:37.950Z,98940.47
2023-01-12T05:54:05.011Z,98939.59
2023-01-12T05:56:33.019Z,98936.28
2023-01-12T05:59:04.446Z,98932.53
2023-01-12T06:01:32.583Z,98933.38
2023-01-12T06:04:01.812Z,98931.50
2023-01-12T06:06:31.535Z,98919.00
2023-01-12T06:09:00.367Z,98921.94
2023-01-12T06:11:46.534Z,98925.03
2023-01-12T06:14:16.813Z,98918.59
2023-01-12T06:16:44.552Z,98932.53
2023-01-12T06:19:12.963Z,98928.78
2023-01-12T06:21:40.819Z,98919.22
2023-01-12T06:24:08.437Z,98917.13
2023-01-12T06:26:35.350Z,98916.72
2023-01-12T06:29:03.680Z,98921.50
2023-01-12T06:31:30.982Z,98921.09
2023-01-12T06:33:58.157Z,98913.81
2023-01-12T06:36:25.130Z,98914.63
2023-01-12T06:38:51.881Z,98920.91
2023-01-12T06:41:37.386Z,98921.94
2023-01-12T06:44:04.769Z,98919.22
2023-01-12T06:46:31.624Z,98925.28
2023-01-12T06:48:59.117Z,98924.66
2023-01-12T06:51:26.928Z,98925.47
2023-01-12T06:53:53.936Z,98923.38
2023-01-12T06:56:21.273Z,98925.06
2023-01-12T06:58:48.162Z,98928.81
2023-01-12T07:01:15.552Z,98917.34
2023-01-12T07:03:42.463Z,98918.22
2023-01-12T07:06:09.452Z,98908.22
2023-01-12T07:08:36.684Z,98920.69
2023-01-12T07:11:08.184Z,98918.84
2023-01-12T07:13:35.618Z,98927.16
2023-01-12T07:16:02.606Z,98915.94
2023-01-12T07:18:30.543Z,98920.09
2023-01-12T07:20:57.737Z,98923.00
2023-01-12T07:23:24.827Z,98925.72
2023-01-12T07:25:51.655Z,98925.72
2023-01-12T07:28:18.549Z,98925.91
2023-01-12T07:30:45.576Z,98923.00
2023-01-12T07:33:15.759Z,98917.19
2023-01-12T07:35:44.379Z,98911.13
2023-01-12T07:38:11.369Z,98922.59
2023-01-12T07:40:38.444Z,98919.69
2023-01-12T07:43:09.112Z,98924.66
2023-01-12T07:45:36.260Z,98930.06
2023-01-12T07:48:03.507Z,98933.63
2023-01-12T07:50:30.697Z,98936.31
2023-01-12T07:53:02.001Z,98930.06
2023-01-12T07:55:32.731Z,98921.31
2023-01-12T07:58:03.434Z,98932.59
2023-01-12T08:00:31.174Z,98927.97
2023-01-12T08:03:06.404Z,98938.41
2023-01-12T08:05:35.154Z,98931.34
2023-01-12T08:08:03.668Z,98939.03
2023-01-12T08:10:30.962Z,98943.78
2023-01-12T08:12:57.864Z,98940.06
2023-01-12T08:15:28.103Z,98942.09
2023-01-12T08:18:07.039Z,98940.66
2023-01-12T08:20:36.501Z,98941.06
2023-01-12T08:23:13.694Z,98934.41
2023-01-12T08:25:46.378Z,98922.13
2023-01-12T08:28:18.180Z,98918.00
2023-01-12T08:30:49.121Z,98917.13
2023-01-12T08:33:16.925Z,98915.28
2023-01-12T08:35:46.585Z,98917.31
2023-01-12T08:38:13.833Z,98914.44
2023-01-12T08:40:59.291Z,98910.06
2023-01-12T08:43:44.560Z,98906.94
2023-01-12T08:46:11.489Z,98909.66
2023-01-12T08:48:39.368Z,98905.72
2023-01-12T08:51:08.384Z,98898.84
2023-01-12T08:53:35.714Z,98898.44
2023-01-12T08:56:03.009Z,98898.03
2023-01-12T08:58:31.401Z,98900.94
2023-01-12T09:00:59.106Z,98903.44
2023-01-12T09:03:25.955Z,98908.44
2023-01-12T09:05:52.738Z,98920.53
2023-01-12T09:08:19.665Z,98913.44
2023-01-12T09:10:46.437Z,98909.06
2023-01-12T09:13:15.899Z,98901.59
2023-01-12T09:15:48.261Z,98906.16
2023-01-12T09:18:20.279Z,98903.66
2023-01-12T09:20:47.228Z,98902.19
2023-01-12T09:23:14.050Z,98900.13
2023-01-12T09:25:41.097Z,98887.63
2023-01-12T09:28:07.833Z,98872.84
2023-01-12T09:30:34.656Z,98880.72
2023-01-12T09:33:01.442Z,98875.56
2023-01-12T09:35:28.233Z,98878.25
2023-01-12T09:37:54.991Z,98874.91
2023-01-12T09:40:21.867Z,98869.31
2023-01-12T09:43:10.113Z,98874.06
2023-01-12T09:45:55.572Z,98869.72
2023-01-12T09:48:23.512Z,98870.94
2023-01-12T09:51:27.117Z,98872.19
2023-01-12T09:53:54.100Z,98860.53
2023-01-12T09:56:38.944Z,98850.13
2023-01-12T09:59:30.554Z,98851.31
2023-01-12T10:01:57.902Z,98855.69
2023-01-12T10:04:25.469Z,98855.50
2023-01-12T10:06:52.695Z,98866.13
2023-01-12T10:09:21.822Z,98865.88
2023-01-12T10:12:35.935Z,98861.53
2023-01-12T10:15:25.542Z,98861.31
2023-01-12T10:18:03.711Z,98852.59
2023-01-12T10:20:38.460Z,98853.81
2023-01-12T10:23:08.171Z,98845.47
2023-01-12T10:25:43.079Z,98846.09
2023-01-12T10:28:21.307Z,98837.13
2023-01-12T10:30:48.100Z,98843.56
2023-01-12T10:33:30.783Z,98836.28
2023-01-12T10:36:01.113Z,98835.22
2023-01-12T10:38:37.423Z,98829.81
2023-01-12T10:41:10.265Z,98834.34
2023-01-12T10:43:38.643Z,98834.97
2023-01-12T10:46:14.338Z,98832.91
2023-01-12T10:48:47.793Z,98828.69
2023-01-12T10:51:31.331Z,98823.47
2023-01-12T10:54:19.540Z,98816.97
2023-01-12T10:56:59.312Z,98813.63
2023-01-12T10:59:31.583Z,98812.34
2023-01-12T11:02:11.933Z,98807.34
2023-01-12T11:04:47.044Z,98797.72
2023-01-12T11:07:29.314Z,98802.72
2023-01-12T11:10:20.900Z,98793.91
2023-01-12T11:13:00.041Z,98800.94
2023-01-12T11:15:28.877Z,98783.63
2023-01-12T11:18:17.243Z,98783.34
2023-01-12T11:21:06.492Z,98775.41
2023-01-12T11:23:46.665Z,98792.28
2023-01-12T11:26:22.697Z,98791.81
2023-01-12T11:28:56.163Z,98790.38
2023-01-12T11:31:32.013Z,98792.44
2023-01-12T11:34:05.588Z,98798.91
2023-01-12T11:36:41.965Z,98790.16
2023-01-12T11:39:18.872Z,98783.47
2023-01-12T11:42:09.709Z,98779.94
2023-01-12T11:45:15.656Z,98766.97
2023-01-12T11:48:17.558Z,98772.63
2023-01-12T11:50:46.549Z,98766.97
2023-01-12T11:53:21.902Z,98769.03
2023-01-12T11:56:23.592Z,98749.44
2023-01-12T11:59:50.338Z,98761.28
2023-01-12T12:02:39.469Z,98739.34
2023-01-12T12:05:23.234Z,98736.66
2023-01-12T12:07:52.653Z,98727.25
2023-01-12T12:10:27.761Z,98718.94
2023-01-12T12:13:25.831Z,98711.84
2023-01-12T12:16:13.938Z,98728.13
2023-01-12T12:18:59.205Z,98730.03
2023-01-12T12:21:46.184Z,98731.75
2023-01-12T12:24:51.629Z,98739.69
2023-01-12T12:27:56.685Z,98749.56
2023-01-12T12:30:56.977Z,98746.47
2023-01-12T12:33:50.375Z,98716.72
2023-01-12T12:36:35.588Z,98739.88
2023-01-12T12:39:20.739Z,98712.19
2023-01-12T12:42:49.441Z,98712.81
2023-01-12T12:45:37.006Z,98724.28
2023-01-12T12:48:21.550Z,98723.84
2023-01-12T12:51:04.551Z,98717.59
2023-01-12T12:53:36.697Z,98729.53
2023-01-12T12:56:11.766Z,98741.69
2023-01-12T12:58:45.928Z,98735.41
2023-01-12T13:01:23.413Z,98741.84
2023-01-12T13:03:54.118Z,98736.88
2023-01-12T13:06:36.080Z,98759.16
2023-01-12T13:09:11.924Z,98739.00
2023-01-12T13:12:08.004Z,98758.56
2023-01-12T13:14:40.985Z,98751.94
2023-01-12T13:17:20.263Z,98749.81
2023-01-12T13:19:47.220Z,98743.81
2023-01-12T13:22:32.508Z,98754.47
2023-01-12T13:25:19.677Z,98765.09
2023-01-12T13:28:01.557Z,98751.13
2023-01-12T13:30:28.466Z,98745.72
2023-01-12T13:32:55.225Z,98741.09
2023-01-12T13:35:34.099Z,98739.00
2023-01-12T13:38:27.931Z,98737.31
2023-01-12T13:41:52.332Z,98720.72
2023-01-12T13:44:26.491Z,98719.91
2023-01-12T13:47:10.888Z,98715.09
2023-01-12T13:49:47.019Z,98722.22
2023-01-12T13:52:37.197Z,98722.84
2023-01-12T13:55:23.332Z,98723.00
2023-01-12T13:58:18.363Z,98712.31
2023-01-12T14:00:59.376Z,98724.38
2023-01-12T14:04:10.396Z,98723.94
2023-01-12T14:07:04.788Z,98732.69
2023-01-12T14:09:49.058Z,98733.06
2023-01-12T14:12:37.935Z,98747.28
2023-01-12T14:15:58.460Z,98743.91
2023-01-12T14:18:46.955Z,98758.34
2023-01-12T14:21:33.709Z,98752.19
2023-01-12T14:24:16.547Z,98762.00
2023-01-12T14:26:43.436Z,98778.31
2023-01-12T14:29:11.684Z,98766.47
2023-01-12T14:31:51.575Z,98777.00
2023-01-12T14:34:35.308Z,98784.09
2023-01-12T14:37:06.056Z,98788.69
2023-01-12T14:39:41.370Z,98789.34
2023-01-12T14:42:37.961Z,98775.63
2023-01-12T14:45:44.387Z,98782.69
2023-01-12T14:48:30.764Z,98783.53
2023-01-12T14:51:17.992Z,98790.19
2023-01-12T14:53:48.178Z,98787.97
2023-01-12T14:56:26.782Z,98777.16
2023-01-12T14:58:54.585Z,98776.53
2023-01-12T15:01:34.094Z,98779.44
2023-01-12T15:04:01.516Z,98787.34
2023-01-12T15:06:28.345Z,98792.34
2023-01-12T15:09:00.764Z,98783.63
2023-01-12T15:11:35.482Z,98795.88
2023-01-12T15:14:05.912Z,98789.66
2023-01-12T15:16:51.139Z,98794.63
2023-01-12T15:19:36.482Z,98775.47
2023-01-12T15:22:22.015Z,98779.03
2023-01-12T15:25:07.344Z,98776.13
2023-01-12T15:27:34.287Z,98779.69
2023-01-12T15:30:01.114Z,98791.53
2023-01-12T15:32:53.129Z,98790.09
2023-01-12T15:35:26.763Z,98782.19
2023-01-12T15:37:57.050Z,98790.94
2023-01-12T15:40:26.877Z,98791.16
2023-01-12T15:42:53.871Z,98798.63
2023-01-12T15:45:27.715Z,98789.09
2023-01-12T15:47:54.730Z,98785.97
2023-01-12T15:50:21.533Z,98766.63
2023-01-12T15:52:49.035Z,98780.34
2023-01-12T15:55:21.043Z,98766.63
2023-01-12T15:57:48.613Z,98775.34
2023-01-12T16:00:19.967Z,98780.13
2023-01-12T16:02:48.944Z,98790.31
2023-01-12T16:05:19.461Z,98793.41
2023-01-12T16:07:48.541Z,98790.69
2023-01-12T16:10:17.240Z,98783.22
2023-01-12T16:12:44.569Z,98790.66
2023-01-12T16:15:24.178Z,98795.25
2023-01-12T16:17:52.275Z,98785.25
2023-01-12T16:20:20.697Z,98796.44
2023-01-12T16:22:47.941Z,98803.28
2023-01-12T16:25:15.924Z,98795.19
2023-01-12T16:27:42.831Z,98802.03
2023-01-12T16:30:14.740Z,98787.69
2023-01-12T16:32:45.969Z,98789.31
2023-01-12T16:35:14.534Z,98778.53
2023-01-12T16:37:41.626Z,98776.41
2023-01-12T16:40:10.276Z,98800.69
2023-01-12T16:42:37.274Z,98798.38
2023-01-12T16:45:04.657Z,98802.91
2023-01-12T16:47:31.625Z,98803.56
2023-01-12T16:49:58.573Z,98804.13
2023-01-12T16:52:25.373Z,98797.69
2023-01-12T16:54:52.269Z,98813.25
2023-01-12T16:57:19.821Z,98788.09
2023-01-12T16:59:47.010Z,98817.13
2023-01-12T17:02:16.298Z,98817.69
2023-01-12T17:04:44.936Z,98811.41
2023-01-12T17:07:12.353Z,98817.44
2023-01-12T17:09:40.387Z,98828.84
2023-01-12T17:12:08.095Z,98836.47
2023-01-12T17:14:35.737Z,98836.22
2023-01-12T17:17:07.787Z,98834.59
2023-01-12T17:19:37.800Z,98835.41
2023-01-12T17:22:08.075Z,98827.50
2023-01-12T17:24:41.883Z,98835.75
2023-01-12T17:27:10.785Z,98817.91
2023-01-12T17:29:38.172Z,98814.56
2023-01-12T17:32:07.009Z,98813.56
2023-01-12T17:34:39.087Z,98809.59
2023-01-12T17:37:08.752Z,98812.75
2023-01-12T17:39:40.514Z,98807.91
2023-01-12T17:42:26.934Z,98806.28
2023-01-12T17:44:53.764Z,98802.50
2023-01-12T17:47:20.614Z,98820.50
2023-01-12T17:49:48.089Z,98827.75
2023-01-12T17:52:15.301Z,98840.97
2023-01-12T17:54:42.153Z,98832.78
2023-01-12T17:57:09.230Z,98840.00
2023-01-12T17:59:36.151Z,98844.00
2023-01-12T18:02:03.976Z,98845.66
2023-01-12T18:04:31.590Z,98841.94
2023-01-12T18:06:58.540Z,98836.28
2023-01-12T18:09:28.032Z,98838.53
2023-01-12T18:11:55.211Z,98830.00
2023-01-12T18:14:24.530Z,98827.31
2023-01-12T18:16:51.353Z,98828.13
2023-01-12T18:19:18.211Z,98824.81
2023-01-12T18:21:45.136Z,98832.25
2023-01-12T18:24:12.317Z,98842.59
2023-01-12T18:26:39.277Z,98832.03
2023-01-12T18:29:07.139Z,98827.47
2023-01-12T18:31:38.255Z,98841.19
2023-01-12T18:34:06.384Z,98831.44
2023-01-12T18:36:40.471Z,98821.66
2023-01-12T18:39:12.631Z,98830.53
2023-01-12T18:41:58.241Z,98830.94
2023-01-12T18:44:25.149Z,98828.00
2023-01-12T18:47:10.432Z,98832.75
2023-01-12T18:49:37.815Z,98826.72
2023-01-12T18:52:23.849Z,98834.38
2023-01-12T18:54:54.865Z,98836.44
2023-01-12T18:57:25.394Z,98836.00
2023-01-12T18:59:56.825Z,98838.25
2023-01-12T19:02:23.889Z,98822.72
2023-01-12T19:04:50.719Z,98826.00
2023-01-12T19:07:40.622Z,98811.59
2023-01-12T19:10:08.274Z,98804.41
2023-01-12T19:12:35.054Z,98813.31
2023-01-12T19:15:20.313Z,98817.88
2023-01-12T19:17:46.976Z,98806.59
2023-01-12T19:20:17.560Z,98811.13
2023-01-12T19:23:02.780Z,98811.59
2023-01-12T19:25:47.994Z,98820.31
2023-01-12T19:28:35.440Z,98815.75
2023-01-12T19:31:06.376Z,98801.19
2023-01-12T19:33:33.587Z,98801.19
2023-01-12T19:36:10.361Z,98798.50
2023-01-12T19:38:38.137Z,98794.81
2023-01-12T19:41:33.672Z,98792.50
2023-01-12T19:44:05.363Z,98791.72
2023-01-12T19:46:33.367Z,98788.25
2023-01-12T19:49:00.617Z,98788.44
2023-01-12T19:51:27.797Z,98788.81
2023-01-12T19:53:54.564Z,98779.34
2023-01-12T19:56:22.152Z,98783.06
2023-01-12T19:58:48.995Z,98782.63
2023-01-12T20:01:23.409Z,98778.44
2023-01-12T20:03:51.281Z,98786.72
2023-01-12T20:06:18.452Z,98788.34
2023-01-12T20:08:45.476Z,98777.94
2023-01-12T20:11:12.272Z,98779.41
2023-01-12T20:13:39.231Z,98769.22
2023-01-12T20:16:10.934Z,98776.72
2023-01-12T20:18:38.135Z,98773.81
2023-01-12T20:21:09.606Z,98772.63
2023-01-12T20:23:36.425Z,98783.00
2023-01-12T20:26:07.945Z,98789.00
2023-01-12T20:28:35.550Z,98770.34
2023-01-12T20:31:02.543Z,98765.69
2023-01-12T20:33:29.421Z,98770.56
2023-01-12T20:35:57.213Z,98761.09
2023-01-12T20:38:24.061Z,98749.03
2023-01-12T20:40:50.878Z,98739.66
2023-01-12T20:43:17.844Z,98744.22
2023-01-12T20:45:45.317Z,98747.50
2023-01-12T20:48:15.627Z,98754.53
2023-01-12T20:50:46.413Z,98763.50
2023-01-12T20:53:15.531Z,98748.00
2023-01-12T20:55:49.173Z,98751.59
2023-01-12T20:58:16.962Z,98748.09
2023-01-12T21:00:44.891Z,98750.78
2023-01-12T21:03:11.830Z,98739.00
2023-01-12T21:05:43.751Z,98741.06
2023-01-12T21:08:12.395Z,98734.84
2023-01-12T21:10:40.750Z,98734.63
2023-01-12T21:13:08.194Z,98733.00
2023-01-12T21:15:35.142Z,98730.03
2023-01-12T21:18:01.928Z,98729.59
2023-01-12T21:20:28.727Z,98745.38
2023-01-12T21:22:55.615Z,98734.78
2023-01-12T21:25:26.127Z,98745.38
2023-01-12T21:27:52.927Z,98760.69
2023-01-12T21:30:19.998Z,98757.78
2023-01-12T21:32:47.288Z,98761.09
2023-01-12T21:35:15.693Z,98744.13
2023-01-12T21:37:42.451Z,98741.06
2023-01-12T21:40:10.570Z,98728.25
2023-01-12T21:42:55.849Z,98740.47
2023-01-12T21:45:23.910Z,98740.09
2023-01-12T21:47:50.667Z,98754.63
2023-01-12T21:50:17.888Z,98753.16
2023-01-12T21:52:45.110Z,98766.31
2023-01-12T21:55:13.740Z,98762.94
2023-01-12T21:57:42.049Z,98766.94
2023-01-12T22:00:10.750Z,98774.78
2023-01-12T22:02:37.505Z,98764.69
2023-01-12T22:05:05.509Z,98763.19
2023-01-12T22:07:32.316Z,98770.66
2023-01-12T22:10:19.094Z,98767.50
2023-01-12T22:12:52.422Z,98764.00
2023-01-12T22:15:19.313Z,98777.06
2023-01-12T22:17:46.414Z,98776.28
2023-01-12T22:20:14.547Z,98760.69
2023-01-12T22:22:41.686Z,98774.75
2023-01-12T22:25:11.569Z,98765.00
2023-01-12T22:27:41.628Z,98761.63
2023-01-12T22:30:12.929Z,98750.78
2023-01-12T22:32:41.671Z,98747.44
2023-01-12T22:35:09.758Z,98746.53
2023-01-12T22:37:38.439Z,98750.19
2023-01-12T22:40:08.736Z,98742.31
2023-01-12T22:42:54.533Z,98742.63
2023-01-12T22:45:21.403Z,98726.88
2023-01-12T22:47:56.128Z,98731.97
2023-01-12T22:50:24.876Z,98724.94
2023-01-12T22:52:54.771Z,98733.81
2023-01-12T22:55:24.351Z,98743.53
2023-01-12T22:57:51.498Z,98732.56
2023-01-12T23:00:20.065Z,98735.06
2023-01-12T23:03:02.982Z,98751.84
2023-01-12T23:05:36.368Z,98737.59
2023-01-12T23:08:06.119Z,98729.75
2023-01-12T23:10:33.703Z,98718.59
2023-01-12T23:13:17.932Z,98713.59
2023-01-12T23:15:44.686Z,98718.97
2023-01-12T23:18:14.514Z,98721.47
2023-01-12T23:20:42.817Z,98727.47
2023-01-12T23:23:11.205Z,98718.59
2023-01-12T23:25:39.525Z,98722.25
2023-01-12T23:28:07.967Z,98722.31
2023-01-12T23:30:34.814Z,98725.25
2023-01-12T23:33:04.226Z,98730.47
2023-01-12T23:35:42.926Z,98733.16
2023-01-12T23:38:16.371Z,98718.66
2023-01-12T23:40:43.664Z,98741.47
2023-01-12T23:43:10.457Z,98728.84
2023-01-12T23:45:37.387Z,98727.06
2023-01-12T23:48:07.744Z,98719.81
2023-01-12T23:50:34.571Z,98716.72
2023-01-12T23:53:01.327Z,98711.72
2023-01-12T23:55:28.566Z,98700.59
2023-01-12T23:57:55.677Z,98721.72
